sensor_id;sensor_type;location;lat;lon;timestamp;pressure;altitude;pressure_sealevel;temperature;humidity
56582;BME280;42463;52.214;21.238;2023-06-26T00:01:41;100313.41;;;18.60;64.89
56582;BME280;42463;52.214;21.238;2023-06-26T00:03:46;100316.10;;;18.60;64.89
56582;BME280;42463;52.214;21.238;2023-06-26T00:05:50;100313.92;;;18.59;64.72
56582;BME280;42463;52.214;21.238;2023-06-26T00:07:54;100313.69;;;18.58;64.62
56582;BME280;42463;52.214;21.238;2023-06-26T00:09:58;100317.12;;;18.56;64.62
56582;BME280;42463;52.214;21.238;2023-06-26T00:12:03;100318.02;;;18.54;64.62
56582;BME280;42463;52.214;21.238;2023-06-26T00:14:08;100315.60;;;18.51;64.74
56582;BME280;42463;52.214;21.238;2023-06-26T00:16:12;100312.35;;;18.46;64.94
56582;BME280;42463;52.214;21.238;2023-06-26T00:18:16;100309.10;;;18.40;64.92
56582;BME280;42463;52.214;21.238;2023-06-26T00:20:21;100304.02;;;18.36;65.17
56582;BME280;42463;52.214;21.238;2023-06-26T00:22:27;100305.66;;;18.33;65.27
56582;BME280;42463;52.214;21.238;2023-06-26T00:24:31;100303.10;;;18.31;65.27
56582;BME280;42463;52.214;21.238;2023-06-26T00:26:36;100301.18;;;18.30;65.36
56582;BME280;42463;52.214;21.238;2023-06-26T00:28:40;100307.26;;;18.26;65.28
56582;BME280;42463;52.214;21.238;2023-06-26T00:30:44;100310.63;;;18.25;65.41
56582;BME280;42463;52.214;21.238;2023-06-26T00:32:49;100309.64;;;18.23;65.26
56582;BME280;42463;52.214;21.238;2023-06-26T00:34:53;100313.31;;;18.15;65.45
56582;BME280;42463;52.214;21.238;2023-06-26T00:36:57;100314.36;;;18.07;65.65
56582;BME280;42463;52.214;21.238;2023-06-26T00:39:01;100310.40;;;18.02;65.75
56582;BME280;42463;52.214;21.238;2023-06-26T00:41:06;100311.02;;;17.99;65.83
56582;BME280;42463;52.214;21.238;2023-06-26T00:43:15;100315.91;;;17.96;65.98
56582;BME280;42463;52.214;21.238;2023-06-26T00:45:19;100312.83;;;17.94;66.29
56582;BME280;42463;52.214;21.238;2023-06-26T00:47:23;100307.19;;;17.93;66.15
56582;BME280;42463;52.214;21.238;2023-06-26T00:49:28;100308.09;;;17.92;66.10
56582;BME280;42463;52.214;21.238;2023-06-26T00:51:32;100305.81;;;17.91;66.08
56582;BME280;42463;52.214;21.238;2023-06-26T00:53:37;100302.63;;;17.89;66.06
56582;BME280;42463;52.214;21.238;2023-06-26T00:55:41;100300.92;;;17.84;66.04
56582;BME280;42463;52.214;21.238;2023-06-26T00:57:46;100299.23;;;17.85;66.14
56582;BME280;42463;52.214;21.238;2023-06-26T00:59:51;100296.86;;;17.88;66.04
56582;BME280;42463;52.214;21.238;2023-06-26T01:01:58;100296.70;;;17.91;65.65
56582;BME280;42463;52.214;21.238;2023-06-26T01:04:02;100293.95;;;17.91;65.62
56582;BME280;42463;52.214;21.238;2023-06-26T01:06:06;100295.02;;;17.93;65.38
56582;BME280;42463;52.214;21.238;2023-06-26T01:08:14;100293.30;;;17.91;65.41
56582;BME280;42463;52.214;21.238;2023-06-26T01:10:19;100294.84;;;17.88;65.36
56582;BME280;42463;52.214;21.238;2023-06-26T01:12:23;100291.69;;;17.86;65.44
56582;BME280;42463;52.214;21.238;2023-06-26T01:14:28;100288.61;;;17.83;65.36
56582;BME280;42463;52.214;21.238;2023-06-26T01:16:32;100291.16;;;17.80;65.40
56582;BME280;42463;52.214;21.238;2023-06-26T01:18:37;100288.36;;;17.74;65.34
56582;BME280;42463;52.214;21.238;2023-06-26T01:20:45;100286.02;;;17.71;65.50
56582;BME280;42463;52.214;21.238;2023-06-26T01:22:55;100284.63;;;17.68;65.57
56582;BME280;42463;52.214;21.238;2023-06-26T01:25:03;100285.46;;;17.66;65.59
56582;BME280;42463;52.214;21.238;2023-06-26T01:27:13;100281.94;;;17.63;65.63
56582;BME280;42463;52.214;21.238;2023-06-26T01:29:18;100283.41;;;17.58;65.56
56582;BME280;42463;52.214;21.238;2023-06-26T01:31:23;100286.68;;;17.50;65.69
56582;BME280;42463;52.214;21.238;2023-06-26T01:33:28;100287.55;;;17.48;65.85
56582;BME280;42463;52.214;21.238;2023-06-26T01:35:32;100287.17;;;17.48;65.95
56582;BME280;42463;52.214;21.238;2023-06-26T01:37:37;100285.60;;;17.49;65.97
56582;BME280;42463;52.214;21.238;2023-06-26T01:39:41;100283.19;;;17.52;65.84
56582;BME280;42463;52.214;21.238;2023-06-26T01:41:45;100278.37;;;17.54;65.71
56582;BME280;42463;52.214;21.238;2023-06-26T01:43:56;100287.27;;;17.54;65.50
56582;BME280;42463;52.214;21.238;2023-06-26T01:46:03;100282.13;;;17.50;65.50
56582;BME280;42463;52.214;21.238;2023-06-26T01:48:08;100281.17;;;17.46;65.38
56582;BME280;42463;52.214;21.238;2023-06-26T01:50:21;100282.80;;;17.41;65.41
56582;BME280;42463;52.214;21.238;2023-06-26T01:52:27;100283.90;;;17.35;65.46
56582;BME280;42463;52.214;21.238;2023-06-26T01:54:33;100277.15;;;17.30;65.65
56582;BME280;42463;52.214;21.238;2023-06-26T01:56:40;100275.60;;;17.27;65.96
56582;BME280;42463;52.214;21.238;2023-06-26T01:58:46;100271.48;;;17.28;66.23
56582;BME280;42463;52.214;21.238;2023-06-26T02:00:51;100272.90;;;17.28;66.23
56582;BME280;42463;52.214;21.238;2023-06-26T02:02:56;100272.73;;;17.28;66.17
56582;BME280;42463;52.214;21.238;2023-06-26T02:05:01;100271.38;;;17.28;66.14
56582;BME280;42463;52.214;21.238;2023-06-26T02:07:05;100268.80;;;17.24;66.12
56582;BME280;42463;52.214;21.238;2023-06-26T02:09:09;100270.35;;;17.20;66.20
56582;BME280;42463;52.214;21.238;2023-06-26T02:11:13;100269.77;;;17.19;66.33
56582;BME280;42463;52.214;21.238;2023-06-26T02:13:17;100266.30;;;17.17;66.45
56582;BME280;42463;52.214;21.238;2023-06-26T02:15:22;100266.38;;;17.15;66.44
56582;BME280;42463;52.214;21.238;2023-06-26T02:17:26;100258.86;;;17.10;66.39
56582;BME280;42463;52.214;21.238;2023-06-26T02:19:31;100266.21;;;17.13;66.75
56582;BME280;42463;52.214;21.238;2023-06-26T02:21:35;100264.64;;;17.12;66.65
56582;BME280;42463;52.214;21.238;2023-06-26T02:23:41;100262.83;;;17.12;66.74
56582;BME280;42463;52.214;21.238;2023-06-26T02:25:45;100259.61;;;17.11;66.46
56582;BME280;42463;52.214;21.238;2023-06-26T02:27:50;100256.60;;;17.08;66.46
56582;BME280;42463;52.214;21.238;2023-06-26T02:29:56;100261.69;;;17.05;66.63
56582;BME280;42463;52.214;21.238;2023-06-26T02:32:00;100258.55;;;17.06;66.61
56582;BME280;42463;52.214;21.238;2023-06-26T02:34:05;100262.35;;;17.08;66.52
56582;BME280;42463;52.214;21.238;2023-06-26T02:36:10;100267.38;;;17.12;66.56
56582;BME280;42463;52.214;21.238;2023-06-26T02:38:17;100269.91;;;17.17;66.58
56582;BME280;42463;52.214;21.238;2023-06-26T02:40:23;100262.27;;;17.21;66.42
56582;BME280;42463;52.214;21.238;2023-06-26T02:42:28;100261.59;;;17.23;66.22
56582;BME280;42463;52.214;21.238;2023-06-26T02:44:32;100258.23;;;17.23;66.31
56582;BME280;42463;52.214;21.238;2023-06-26T02:46:36;100256.48;;;17.23;66.34
56582;BME280;42463;52.214;21.238;2023-06-26T02:48:40;100263.83;;;17.29;66.02
56582;BME280;42463;52.214;21.238;2023-06-26T02:50:44;100264.00;;;17.32;66.00
56582;BME280;42463;52.214;21.238;2023-06-26T02:52:51;100267.52;;;17.35;65.87
56582;BME280;42463;52.214;21.238;2023-06-26T02:54:56;100269.84;;;17.33;65.70
56582;BME280;42463;52.214;21.238;2023-06-26T02:57:00;100262.56;;;17.29;65.79
56582;BME280;42463;52.214;21.238;2023-06-26T02:59:06;100262.16;;;17.25;65.80
56582;BME280;42463;52.214;21.238;2023-06-26T03:01:10;100262.88;;;17.21;65.96
56582;BME280;42463;52.214;21.238;2023-06-26T03:03:15;100264.27;;;17.21;65.97
56582;BME280;42463;52.214;21.238;2023-06-26T03:05:19;100263.10;;;17.21;65.98
56582;BME280;42463;52.214;21.238;2023-06-26T03:07:23;100263.84;;;17.20;65.87
56582;BME280;42463;52.214;21.238;2023-06-26T03:09:28;100264.06;;;17.22;66.02
56582;BME280;42463;52.214;21.238;2023-06-26T03:11:32;100263.21;;;17.27;65.81
56582;BME280;42463;52.214;21.238;2023-06-26T03:13:37;100259.63;;;17.31;65.69
56582;BME280;42463;52.214;21.238;2023-06-26T03:15:41;100261.77;;;17.36;65.43
56582;BME280;42463;52.214;21.238;2023-06-26T03:17:45;100262.38;;;17.40;65.20
56582;BME280;42463;52.214;21.238;2023-06-26T03:19:55;100259.00;;;17.41;65.06
56582;BME280;42463;52.214;21.238;2023-06-26T03:22:03;100256.38;;;17.37;65.32
56582;BME280;42463;52.214;21.238;2023-06-26T03:24:08;100253.41;;;17.38;65.51
56582;BME280;42463;52.214;21.238;2023-06-26T03:26:13;100252.88;;;17.36;65.57
56582;BME280;42463;52.214;21.238;2023-06-26T03:28:17;100250.70;;;17.39;65.42
56582;BME280;42463;52.214;21.238;2023-06-26T03:30:23;100252.79;;;17.39;65.55
56582;BME280;42463;52.214;21.238;2023-06-26T03:32:27;100257.52;;;17.38;65.66
56582;BME280;42463;52.214;21.238;2023-06-26T03:34:32;100258.05;;;17.36;65.63
56582;BME280;42463;52.214;21.238;2023-06-26T03:36:37;100260.34;;;17.37;65.62
56582;BME280;42463;52.214;21.238;2023-06-26T03:38:41;100259.55;;;17.35;65.96
56582;BME280;42463;52.214;21.238;2023-06-26T03:40:45;100258.73;;;17.35;65.97
56582;BME280;42463;52.214;21.238;2023-06-26T03:42:49;100260.33;;;17.35;66.03
56582;BME280;42463;52.214;21.238;2023-06-26T03:44:53;100260.61;;;17.37;66.21
56582;BME280;42463;52.214;21.238;2023-06-26T03:46:58;100259.95;;;17.39;66.03
56582;BME280;42463;52.214;21.238;2023-06-26T03:49:02;100255.81;;;17.41;65.94
56582;BME280;42463;52.214;21.238;2023-06-26T03:51:06;100260.38;;;17.44;66.30
56582;BME280;42463;52.214;21.238;2023-06-26T03:53:10;100259.60;;;17.47;66.22
56582;BME280;42463;52.214;21.238;2023-06-26T03:55:17;100253.91;;;17.49;66.16
56582;BME280;42463;52.214;21.238;2023-06-26T03:57:22;100259.95;;;17.52;66.27
56582;BME280;42463;52.214;21.238;2023-06-26T03:59:26;100258.09;;;17.53;66.59
56582;BME280;42463;52.214;21.238;2023-06-26T04:01:30;100257.20;;;17.57;66.73
56582;BME280;42463;52.214;21.238;2023-06-26T04:03:34;100253.02;;;17.61;66.80
56582;BME280;42463;52.214;21.238;2023-06-26T04:05:38;100254.05;;;17.68;67.10
56582;BME280;42463;52.214;21.238;2023-06-26T04:07:42;100255.14;;;17.78;66.93
56582;BME280;42463;52.214;21.238;2023-06-26T04:09:46;100256.85;;;17.86;66.71
56582;BME280;42463;52.214;21.238;2023-06-26T04:11:50;100258.22;;;17.91;66.76
56582;BME280;42463;52.214;21.238;2023-06-26T04:13:54;100262.55;;;17.96;66.80
56582;BME280;42463;52.214;21.238;2023-06-26T04:15:58;100264.75;;;17.98;66.70
56582;BME280;42463;52.214;21.238;2023-06-26T04:18:03;100268.34;;;17.98;66.87
56582;BME280;42463;52.214;21.238;2023-06-26T04:20:08;100267.78;;;18.03;67.15
56582;BME280;42463;52.214;21.238;2023-06-26T04:22:12;100266.75;;;18.13;67.31
56582;BME280;42463;52.214;21.238;2023-06-26T04:24:16;100268.10;;;18.23;67.31
56582;BME280;42463;52.214;21.238;2023-06-26T04:26:20;100269.12;;;18.32;67.07
56582;BME280;42463;52.214;21.238;2023-06-26T04:28:25;100266.94;;;18.34;66.71
56582;BME280;42463;52.214;21.238;2023-06-26T04:30:29;100268.10;;;18.33;67.01
56582;BME280;42463;52.214;21.238;2023-06-26T04:32:33;100266.98;;;18.34;67.09
56582;BME280;42463;52.214;21.238;2023-06-26T04:34:38;100267.86;;;18.36;67.20
56582;BME280;42463;52.214;21.238;2023-06-26T04:36:44;100264.30;;;18.40;67.55
56582;BME280;42463;52.214;21.238;2023-06-26T04:38:50;100261.23;;;18.50;67.73
56582;BME280;42463;52.214;21.238;2023-06-26T04:40:55;100263.66;;;18.62;67.76
56582;BME280;42463;52.214;21.238;2023-06-26T04:42:59;100259.23;;;18.70;67.75
56582;BME280;42463;52.214;21.238;2023-06-26T04:45:03;100258.70;;;18.77;67.59
56582;BME280;42463;52.214;21.238;2023-06-26T04:47:08;100257.08;;;18.80;67.54
56582;BME280;42463;52.214;21.238;2023-06-26T04:49:12;100258.17;;;18.83;67.52
56582;BME280;42463;52.214;21.238;2023-06-26T04:51:19;100254.70;;;18.86;67.48
56582;BME280;42463;52.214;21.238;2023-06-26T04:53:25;100256.72;;;18.88;67.59
56582;BME280;42463;52.214;21.238;2023-06-26T04:55:29;100258.98;;;18.93;67.67
56582;BME280;42463;52.214;21.238;2023-06-26T04:57:33;100257.48;;;18.99;67.52
56582;BME280;42463;52.214;21.238;2023-06-26T04:59:38;100260.67;;;19.05;67.44
56582;BME280;42463;52.214;21.238;2023-06-26T05:01:42;100262.66;;;19.14;67.39
56582;BME280;42463;52.214;21.238;2023-06-26T05:03:50;100259.76;;;19.22;67.05
56582;BME280;42463;52.214;21.238;2023-06-26T05:05:55;100261.91;;;19.31;67.03
56582;BME280;42463;52.214;21.238;2023-06-26T05:07:58;100260.86;;;19.42;67.46
56582;BME280;42463;52.214;21.238;2023-06-26T05:10:16;100264.19;;;19.52;67.39
56582;BME280;42463;52.214;21.238;2023-06-26T05:12:21;100265.88;;;19.59;67.23
56582;BME280;42463;52.214;21.238;2023-06-26T05:14:25;100268.14;;;19.66;67.40
56582;BME280;42463;52.214;21.238;2023-06-26T05:16:29;100268.02;;;19.72;67.40
56582;BME280;42463;52.214;21.238;2023-06-26T05:18:33;100267.08;;;19.79;67.19
56582;BME280;42463;52.214;21.238;2023-06-26T05:20:38;100268.81;;;19.86;66.94
56582;BME280;42463;52.214;21.238;2023-06-26T05:22:42;100264.52;;;19.92;66.99
56582;BME280;42463;52.214;21.238;2023-06-26T05:24:47;100268.69;;;20.01;66.96
56582;BME280;42463;52.214;21.238;2023-06-26T05:26:52;100263.71;;;20.11;66.61
56582;BME280;42463;52.214;21.238;2023-06-26T05:28:57;100262.65;;;20.19;66.77
56582;BME280;42463;52.214;21.238;2023-06-26T05:31:02;100260.85;;;20.25;66.75
56582;BME280;42463;52.214;21.238;2023-06-26T05:33:08;100252.79;;;20.27;66.69
56582;BME280;42463;52.214;21.238;2023-06-26T05:35:14;100262.08;;;20.40;66.51
56582;BME280;42463;52.214;21.238;2023-06-26T05:37:20;100259.65;;;20.45;66.21
56582;BME280;42463;52.214;21.238;2023-06-26T05:39:26;100260.54;;;20.54;66.01
56582;BME280;42463;52.214;21.238;2023-06-26T05:41:30;100257.06;;;20.59;65.38
56582;BME280;42463;52.214;21.238;2023-06-26T05:43:35;100255.57;;;20.64;64.27
56582;BME280;42463;52.214;21.238;2023-06-26T05:45:39;100254.06;;;20.71;64.83
56582;BME280;42463;52.214;21.238;2023-06-26T05:47:43;100258.19;;;20.77;64.32
56582;BME280;42463;52.214;21.238;2023-06-26T05:49:47;100254.83;;;20.82;63.51
56582;BME280;42463;52.214;21.238;2023-06-26T05:51:52;100258.70;;;20.90;63.24
56582;BME280;42463;52.214;21.238;2023-06-26T05:53:57;100257.30;;;20.99;62.93
56582;BME280;42463;52.214;21.238;2023-06-26T05:56:02;100257.91;;;21.04;62.85
56582;BME280;42463;52.214;21.238;2023-06-26T05:58:06;100256.91;;;21.12;62.44
56582;BME280;42463;52.214;21.238;2023-06-26T06:00:11;100255.64;;;21.17;62.34
56582;BME280;42463;52.214;21.238;2023-06-26T06:02:19;100251.41;;;21.20;62.57
56582;BME280;42463;52.214;21.238;2023-06-26T06:04:23;100244.95;;;21.25;62.22
56582;BME280;42463;52.214;21.238;2023-06-26T06:06:27;100241.89;;;21.30;62.26
56582;BME280;42463;52.214;21.238;2023-06-26T06:08:31;100243.91;;;21.37;61.73
56582;BME280;42463;52.214;21.238;2023-06-26T06:10:35;100245.17;;;21.43;61.01
56582;BME280;42463;52.214;21.238;2023-06-26T06:12:39;100244.80;;;21.48;61.00
56582;BME280;42463;52.214;21.238;2023-06-26T06:14:43;100244.58;;;21.54;61.07
56582;BME280;42463;52.214;21.238;2023-06-26T06:16:48;100245.52;;;21.59;60.93
56582;BME280;42463;52.214;21.238;2023-06-26T06:18:52;100246.05;;;21.66;60.16
56582;BME280;42463;52.214;21.238;2023-06-26T06:20:56;100246.83;;;21.74;59.68
56582;BME280;42463;52.214;21.238;2023-06-26T06:23:00;100241.68;;;21.81;59.07
56582;BME280;42463;52.214;21.238;2023-06-26T06:25:05;100241.52;;;21.90;58.95
56582;BME280;42463;52.214;21.238;2023-06-26T06:27:09;100235.08;;;21.97;59.04
56582;BME280;42463;52.214;21.238;2023-06-26T06:29:14;100237.98;;;22.04;59.11
56582;BME280;42463;52.214;21.238;2023-06-26T06:31:18;100238.48;;;22.11;59.34
56582;BME280;42463;52.214;21.238;2023-06-26T06:33:23;100235.50;;;22.16;59.06
56582;BME280;42463;52.214;21.238;2023-06-26T06:35:27;100236.17;;;22.21;58.76
56582;BME280;42463;52.214;21.238;2023-06-26T06:37:32;100234.00;;;22.26;58.68
56582;BME280;42463;52.214;21.238;2023-06-26T06:39:36;100233.42;;;22.33;57.72
56582;BME280;42463;52.214;21.238;2023-06-26T06:41:40;100231.80;;;22.41;58.16
56582;BME280;42463;52.214;21.238;2023-06-26T06:43:44;100226.50;;;22.47;58.07
56582;BME280;42463;52.214;21.238;2023-06-26T06:45:48;100229.29;;;22.56;57.70
56582;BME280;42463;52.214;21.238;2023-06-26T06:47:52;100228.75;;;22.65;57.39
56582;BME280;42463;52.214;21.238;2023-06-26T06:49:56;100226.53;;;22.72;57.31
56582;BME280;42463;52.214;21.238;2023-06-26T06:52:00;100226.14;;;22.80;56.87
56582;BME280;42463;52.214;21.238;2023-06-26T06:54:04;100223.52;;;22.89;57.23
56582;BME280;42463;52.214;21.238;2023-06-26T06:56:08;100222.17;;;22.95;57.90
56582;BME280;42463;52.214;21.238;2023-06-26T06:58:13;100223.44;;;23.06;57.53
56582;BME280;42463;52.214;21.238;2023-06-26T07:00:17;100223.41;;;23.07;56.63
56582;BME280;42463;52.214;21.238;2023-06-26T07:02:21;100223.95;;;23.13;55.24
56582;BME280;42463;52.214;21.238;2023-06-26T07:04:25;100221.96;;;23.20;54.72
56582;BME280;42463;52.214;21.238;2023-06-26T07:06:30;100220.96;;;23.28;54.39
56582;BME280;42463;52.214;21.238;2023-06-26T07:08:34;100218.30;;;23.36;54.59
56582;BME280;42463;52.214;21.238;2023-06-26T07:10:39;100220.65;;;23.40;55.60
56582;BME280;42463;52.214;21.238;2023-06-26T07:12:43;100220.12;;;23.43;54.88
56582;BME280;42463;52.214;21.238;2023-06-26T07:14:47;100216.40;;;23.52;54.06
56582;BME280;42463;52.214;21.238;2023-06-26T07:16:51;100217.94;;;23.60;52.90
56582;BME280;42463;52.214;21.238;2023-06-26T07:18:55;100215.02;;;23.68;52.70
56582;BME280;42463;52.214;21.238;2023-06-26T07:21:00;100214.45;;;23.75;52.67
56582;BME280;42463;52.214;21.238;2023-06-26T07:23:04;100216.01;;;23.79;52.62
56582;BME280;42463;52.214;21.238;2023-06-26T07:25:08;100216.13;;;23.80;51.84
56582;BME280;42463;52.214;21.238;2023-06-26T07:27:13;100215.11;;;23.83;50.82
56582;BME280;42463;52.214;21.238;2023-06-26T07:29:17;100219.78;;;23.91;50.94
56582;BME280;42463;52.214;21.238;2023-06-26T07:31:21;100214.67;;;23.97;50.43
56582;BME280;42463;52.214;21.238;2023-06-26T07:33:25;100214.37;;;24.04;50.55
56582;BME280;42463;52.214;21.238;2023-06-26T07:35:30;100212.55;;;24.10;51.76
56582;BME280;42463;52.214;21.238;2023-06-26T07:37:35;100210.65;;;24.15;51.53
56582;BME280;42463;52.214;21.238;2023-06-26T07:39:39;100211.25;;;24.22;49.87
56582;BME280;42463;52.214;21.238;2023-06-26T07:41:43;100209.02;;;24.29;49.73
56582;BME280;42463;52.214;21.238;2023-06-26T07:43:47;100209.73;;;24.31;50.97
56582;BME280;42463;52.214;21.238;2023-06-26T07:45:51;100206.62;;;24.36;50.69
56582;BME280;42463;52.214;21.238;2023-06-26T07:47:56;100209.69;;;24.41;49.63
56582;BME280;42463;52.214;21.238;2023-06-26T07:50:00;100207.42;;;24.47;49.17
56582;BME280;42463;52.214;21.238;2023-06-26T07:52:05;100208.78;;;24.56;49.70
56582;BME280;42463;52.214;21.238;2023-06-26T07:54:09;100209.36;;;24.60;48.95
56582;BME280;42463;52.214;21.238;2023-06-26T07:56:13;100213.61;;;24.62;49.04
56582;BME280;42463;52.214;21.238;2023-06-26T07:58:17;100206.11;;;24.63;47.45
56582;BME280;42463;52.214;21.238;2023-06-26T08:00:22;100211.00;;;24.65;46.92
56582;BME280;42463;52.214;21.238;2023-06-26T08:02:29;100212.13;;;24.68;47.18
56582;BME280;42463;52.214;21.238;2023-06-26T08:04:33;100208.27;;;24.71;47.35
56582;BME280;42463;52.214;21.238;2023-06-26T08:06:37;100208.73;;;24.80;46.57
56582;BME280;42463;52.214;21.238;2023-06-26T08:08:43;100207.57;;;24.90;46.07
56582;BME280;42463;52.214;21.238;2023-06-26T08:10:47;100203.23;;;25.01;46.83
56582;BME280;42463;52.214;21.238;2023-06-26T08:12:51;100203.45;;;25.09;45.77
56582;BME280;42463;52.214;21.238;2023-06-26T08:14:55;100207.60;;;25.16;45.39
56582;BME280;42463;52.214;21.238;2023-06-26T08:16:59;100205.98;;;25.21;44.61
56582;BME280;42463;52.214;21.238;2023-06-26T08:19:04;100202.59;;;25.28;42.66
56582;BME280;42463;52.214;21.238;2023-06-26T08:21:09;100206.02;;;25.31;44.82
56582;BME280;42463;52.214;21.238;2023-06-26T08:23:13;100198.09;;;25.35;44.38
56582;BME280;42463;52.214;21.238;2023-06-26T08:25:18;100198.59;;;25.39;45.09
56582;BME280;42463;52.214;21.238;2023-06-26T08:27:22;100196.33;;;25.41;45.28
56582;BME280;42463;52.214;21.238;2023-06-26T08:29:26;100190.54;;;25.48;43.94
56582;BME280;42463;52.214;21.238;2023-06-26T08:31:30;100195.37;;;25.57;44.40
56582;BME280;42463;52.214;21.238;2023-06-26T08:33:37;100197.58;;;25.63;44.82
56582;BME280;42463;52.214;21.238;2023-06-26T08:35:41;100193.65;;;25.70;44.02
56582;BME280;42463;52.214;21.238;2023-06-26T08:37:46;100194.95;;;25.78;42.39
56582;BME280;42463;52.214;21.238;2023-06-26T08:39:50;100193.97;;;25.85;41.85
56582;BME280;42463;52.214;21.238;2023-06-26T08:41:54;100192.47;;;25.92;42.08
56582;BME280;42463;52.214;21.238;2023-06-26T08:43:59;100189.05;;;25.98;41.85
56582;BME280;42463;52.214;21.238;2023-06-26T08:46:03;100192.48;;;26.02;43.76
56582;BME280;42463;52.214;21.238;2023-06-26T08:48:08;100184.38;;;26.02;42.71
56582;BME280;42463;52.214;21.238;2023-06-26T08:50:12;100183.20;;;26.06;40.06
56582;BME280;42463;52.214;21.238;2023-06-26T08:52:19;100181.11;;;26.13;41.56
56582;BME280;42463;52.214;21.238;2023-06-26T08:54:34;100182.83;;;26.15;41.94
56582;BME280;42463;52.214;21.238;2023-06-26T08:56:40;100182.48;;;26.17;41.74
56582;BME280;42463;52.214;21.238;2023-06-26T08:58:45;100179.44;;;26.20;41.32
56582;BME280;42463;52.214;21.238;2023-06-26T09:00:50;100178.92;;;26.18;41.03
56582;BME280;42463;52.214;21.238;2023-06-26T09:02:54;100181.66;;;26.20;40.77
56582;BME280;42463;52.214;21.238;2023-06-26T09:04:59;100180.20;;;26.22;40.26
56582;BME280;42463;52.214;21.238;2023-06-26T09:07:04;100179.58;;;26.23;39.53
56582;BME280;42463;52.214;21.238;2023-06-26T09:09:08;100181.35;;;26.24;39.73
56582;BME280;42463;52.214;21.238;2023-06-26T09:11:13;100179.32;;;26.25;39.94
56582;BME280;42463;52.214;21.238;2023-06-26T09:13:17;100176.47;;;26.26;40.51
56582;BME280;42463;52.214;21.238;2023-06-26T09:15:22;100176.22;;;26.21;40.14
56582;BME280;42463;52.214;21.238;2023-06-26T09:17:26;100178.02;;;26.12;40.93
56582;BME280;42463;52.214;21.238;2023-06-26T09:19:32;100177.59;;;26.04;40.73
56582;BME280;42463;52.214;21.238;2023-06-26T09:21:39;100178.30;;;25.97;40.92
56582;BME280;42463;52.214;21.238;2023-06-26T09:23:44;100179.68;;;25.92;40.51
56582;BME280;42463;52.214;21.238;2023-06-26T09:25:48;100180.20;;;25.91;40.42
56582;BME280;42463;52.214;21.238;2023-06-26T09:27:52;100177.93;;;25.92;41.46
56582;BME280;42463;52.214;21.238;2023-06-26T09:29:57;100175.16;;;25.92;41.43
56582;BME280;42463;52.214;21.238;2023-06-26T09:32:02;100173.36;;;25.94;41.32
56582;BME280;42463;52.214;21.238;2023-06-26T09:34:06;100172.07;;;25.96;41.27
56582;BME280;42463;52.214;21.238;2023-06-26T09:36:20;100170.35;;;26.03;42.25
56582;BME280;42463;52.214;21.238;2023-06-26T09:38:24;100170.95;;;26.13;41.95
56582;BME280;42463;52.214;21.238;2023-06-26T09:40:29;100168.98;;;26.21;41.73
56582;BME280;42463;52.214;21.238;2023-06-26T09:42:33;100168.95;;;26.34;41.08
56582;BME280;42463;52.214;21.238;2023-06-26T09:44:42;100162.35;;;26.45;38.66
56582;BME280;42463;52.214;21.238;2023-06-26T09:46:47;100158.17;;;26.55;37.99
56582;BME280;42463;52.214;21.238;2023-06-26T09:48:51;100156.07;;;26.66;37.71
56582;BME280;42463;52.214;21.238;2023-06-26T09:51:01;100154.55;;;26.79;37.75
56582;BME280;42463;52.214;21.238;2023-06-26T09:53:08;100152.54;;;26.90;37.27
56582;BME280;42463;52.214;21.238;2023-06-26T09:55:13;100153.59;;;27.00;38.91
56582;BME280;42463;52.214;21.238;2023-06-26T09:57:18;100155.08;;;27.02;38.04
56582;BME280;42463;52.214;21.238;2023-06-26T09:59:22;100155.30;;;27.01;37.61
56582;BME280;42463;52.214;21.238;2023-06-26T10:01:28;100153.34;;;27.03;37.34
56582;BME280;42463;52.214;21.238;2023-06-26T10:03:32;100147.91;;;27.05;38.06
56582;BME280;42463;52.214;21.238;2023-06-26T10:05:36;100145.41;;;27.04;38.87
56582;BME280;42463;52.214;21.238;2023-06-26T10:07:41;100147.63;;;27.03;39.04
56582;BME280;42463;52.214;21.238;2023-06-26T10:09:45;100141.75;;;27.08;38.20
56582;BME280;42463;52.214;21.238;2023-06-26T10:11:53;100140.05;;;27.15;36.81
56582;BME280;42463;52.214;21.238;2023-06-26T10:13:59;100140.34;;;27.23;36.26
56582;BME280;42463;52.214;21.238;2023-06-26T10:16:04;100139.40;;;27.29;35.57
56582;BME280;42463;52.214;21.238;2023-06-26T10:18:10;100140.45;;;27.30;36.28
56582;BME280;42463;52.214;21.238;2023-06-26T10:20:15;100138.79;;;27.25;37.68
56582;BME280;42463;52.214;21.238;2023-06-26T10:22:20;100136.08;;;27.20;37.05
56582;BME280;42463;52.214;21.238;2023-06-26T10:24:26;100134.87;;;27.14;37.26
56582;BME280;42463;52.214;21.238;2023-06-26T10:26:32;100132.39;;;27.14;35.97
56582;BME280;42463;52.214;21.238;2023-06-26T10:28:37;100132.16;;;27.18;36.26
56582;BME280;42463;52.214;21.238;2023-06-26T10:30:42;100127.61;;;27.23;35.23
56582;BME280;42463;52.214;21.238;2023-06-26T10:32:48;100123.51;;;27.26;34.74
56582;BME280;42463;52.214;21.238;2023-06-26T10:34:52;100121.86;;;27.32;35.19
56582;BME280;42463;52.214;21.238;2023-06-26T10:37:00;100121.26;;;27.40;35.64
56582;BME280;42463;52.214;21.238;2023-06-26T10:39:05;100123.76;;;27.47;36.38
56582;BME280;42463;52.214;21.238;2023-06-26T10:41:11;100120.26;;;27.53;36.42
56582;BME280;42463;52.214;21.238;2023-06-26T10:43:15;100119.53;;;27.58;36.81
56582;BME280;42463;52.214;21.238;2023-06-26T10:45:20;100120.65;;;27.61;36.80